Time;durP1;ratioP1;P1;durP2;ratioP2;P2;SDS_P1;SDS_P2;PMS_P1;PMS_P2;Temp;Humidity;BMP_temperature;BMP_pressure;BME280_temperature;BME280_humidity;BME280_pressure;Samples;Min_cycle;Max_cycle;Signal;HPM_P1;HPM_P2
2021/12/07 00:00:48;;;;;;;5.88;3.55;;;;;;;;;;5067280;28;20027;-52
2021/12/07 00:03:14;;;;;;;9.15;4.30;;;;;;;;;;5066142;28;20115;-52
2021/12/07 00:05:40;;;;;;;7.32;3.50;;;;;;;;;;5066517;28;20348;-53
2021/12/07 00:08:06;;;;;;;9.73;4.43;;;;;;;;;;5066650;28;20028;-53
2021/12/07 00:10:32;;;;;;;9.38;4.85;;;;;;;;;;5067466;28;20021;-52
2021/12/07 00:12:58;;;;;;;9.80;4.45;;;;;;;;;;5067290;28;20032;-52
2021/12/07 00:15:25;;;;;;;7.65;3.90;;;;;;;;;;5065962;28;20048;-53
2021/12/07 00:17:54;;;;;;;6.60;3.75;;;;;;;;;;5067709;28;20024;-53
2021/12/07 00:20:20;;;;;;;8.73;4.50;;;;;;;;;;5066903;28;20016;-50
2021/12/07 00:22:49;;;;;;;7.07;4.40;;;;;;;;;;5067138;28;20020;-53
2021/12/07 00:25:16;;;;;;;6.35;4.18;;;;;;;;;;5066888;28;20550;-51
2021/12/07 00:27:42;;;;;;;6.70;4.32;;;;;;;;;;5065616;28;20043;-49
2021/12/07 00:30:09;;;;;;;7.20;4.43;;;;;;;;;;5065620;28;20086;-49
2021/12/07 00:32:42;;;;;;;6.55;3.90;;;;;;;;;;5066295;28;20082;-49
2021/12/07 00:37:55;;;;;;;5.93;4.40;;;;;;;;;;5065036;28;20140;-50
2021/12/07 00:40:23;;;;;;;5.40;3.97;;;;;;;;;;5068067;28;20075;-52
2021/12/07 00:42:49;;;;;;;5.68;4.25;;;;;;;;;;5068174;28;20387;-53
2021/12/07 00:45:19;;;;;;;6.45;3.97;;;;;;;;;;5068123;28;20024;-52
2021/12/07 00:47:45;;;;;;;6.07;4.35;;;;;;;;;;5067599;28;20853;-52
2021/12/07 00:50:12;;;;;;;6.47;4.15;;;;;;;;;;5067986;28;20047;-52
2021/12/07 00:52:38;;;;;;;5.30;4.00;;;;;;;;;;5067887;28;20066;-53
2021/12/07 00:55:07;;;;;;;6.38;4.20;;;;;;;;;;5068122;28;20054;-52
2021/12/07 00:57:33;;;;;;;6.43;4.55;;;;;;;;;;5067934;28;20453;-52
2021/12/07 00:59:59;;;;;;;5.97;4.22;;;;;;;;;;5067960;28;20098;-54
2021/12/07 01:02:26;;;;;;;6.32;4.20;;;;;;;;;;5064276;28;20389;-53
2021/12/07 01:04:58;;;;;;;7.30;4.57;;;;;;;;;;5065850;28;20096;-52
2021/12/07 01:26:45;;;;;;;6.30;3.97;;;;;;;;;;5065826;28;20116;-49
2021/12/07 01:29:11;;;;;;;6.22;4.20;;;;;;;;;;5065805;28;20519;-49
2021/12/07 01:32:35;;;;;;;5.60;3.97;;;;;;;;;;5066285;28;20467;-50
2021/12/07 01:47:33;;;;;;;6.45;4.35;;;;;;;;;;5065273;28;20566;-52
2021/12/07 02:00:47;;;;;;;5.63;4.53;;;;;;;;;;5065916;28;20044;-50
2021/12/07 02:03:13;;;;;;;6.75;4.18;;;;;;;;;;5064828;28;20504;-53
2021/12/07 02:05:39;;;;;;;6.30;4.25;;;;;;;;;;5064437;28;20032;-51
2021/12/07 02:08:06;;;;;;;6.25;4.47;;;;;;;;;;5064851;28;20070;-53
2021/12/07 02:10:33;;;;;;;6.40;4.00;;;;;;;;;;5061291;28;20046;-53
2021/12/07 02:13:06;;;;;;;6.78;4.22;;;;;;;;;;5066375;28;20031;-51
2021/12/07 02:15:33;;;;;;;5.65;4.25;;;;;;;;;;5066198;28;20036;-52
2021/12/07 02:17:59;;;;;;;7.25;3.92;;;;;;;;;;5065167;28;20502;-50
2021/12/07 02:20:28;;;;;;;6.65;4.40;;;;;;;;;;5065042;28;20040;-52
2021/12/07 02:22:55;;;;;;;6.40;4.43;;;;;;;;;;5064554;28;20074;-49
2021/12/07 02:25:21;;;;;;;6.65;4.30;;;;;;;;;;5065107;28;20419;-52
2021/12/07 02:27:49;;;;;;;6.70;4.65;;;;;;;;;;5063815;28;20403;-51
2021/12/07 02:30:17;;;;;;;10.63;6.10;;;;;;;;;;5064480;28;20036;-53
2021/12/07 02:32:43;;;;;;;9.35;5.57;;;;;;;;;;5063489;28;20028;-53
2021/12/07 02:35:12;;;;;;;7.65;4.82;;;;;;;;;;5064424;28;20485;-53
2021/12/07 02:37:39;;;;;;;7.20;5.03;;;;;;;;;;5064415;28;20017;-52
2021/12/07 02:40:06;;;;;;;7.10;4.47;;;;;;;;;;5064511;28;20040;-51
2021/12/07 02:42:32;;;;;;;7.68;4.88;;;;;;;;;;5064120;28;20052;-53
2021/12/07 02:44:59;;;;;;;6.20;4.35;;;;;;;;;;5064427;28;20121;-51
2021/12/07 02:47:26;;;;;;;7.90;4.57;;;;;;;;;;5063746;28;20035;-49
2021/12/07 02:49:52;;;;;;;6.28;4.70;;;;;;;;;;5065023;28;20032;-51
2021/12/07 02:52:19;;;;;;;6.22;4.28;;;;;;;;;;5064227;28;20020;-51
2021/12/07 02:54:49;;;;;;;7.28;5.30;;;;;;;;;;5064656;28;20418;-53
2021/12/07 02:57:18;;;;;;;8.75;5.68;;;;;;;;;;5066327;28;20364;-52
2021/12/07 02:59:50;;;;;;;8.15;5.55;;;;;;;;;;5068908;28;20031;-51
2021/12/07 03:02:18;;;;;;;8.13;5.68;;;;;;;;;;5066609;28;20044;-53
2021/12/07 03:04:59;;;;;;;6.53;4.57;;;;;;;;;;5047326;28;20112;-51
2021/12/07 03:26:38;;;;;;;8.25;5.50;;;;;;;;;;5067761;28;20039;-51
2021/12/07 03:29:05;;;;;;;7.63;5.43;;;;;;;;;;5068248;28;20407;-49
2021/12/07 03:31:31;;;;;;;8.73;5.93;;;;;;;;;;5067929;28;20028;-49
2021/12/07 03:34:00;;;;;;;10.88;6.75;;;;;;;;;;5066629;28;20107;-50
2021/12/07 03:36:27;;;;;;;9.68;6.07;;;;;;;;;;5067631;28;20043;-50
2021/12/07 03:38:53;;;;;;;8.30;5.63;;;;;;;;;;5067592;28;20036;-49
2021/12/07 03:41:20;;;;;;;8.88;5.47;;;;;;;;;;5067618;28;20020;-52
2021/12/07 03:43:46;;;;;;;9.05;5.82;;;;;;;;;;5067470;28;20024;-52
2021/12/07 03:46:13;;;;;;;8.30;5.65;;;;;;;;;;5067763;28;20035;-52
2021/12/07 03:48:41;;;;;;;7.65;5.32;;;;;;;;;;5067319;28;20029;-52
2021/12/07 03:51:08;;;;;;;8.32;5.18;;;;;;;;;;5067819;28;20025;-53
2021/12/07 03:53:36;;;;;;;7.00;5.10;;;;;;;;;;5066137;28;20035;-52
2021/12/07 03:56:03;;;;;;;7.45;5.00;;;;;;;;;;5067098;28;20043;-52
2021/12/07 03:58:29;;;;;;;6.22;4.60;;;;;;;;;;5067275;28;20020;-50
2021/12/07 04:00:56;;;;;;;6.10;4.43;;;;;;;;;;5068001;28;20021;-52
2021/12/07 04:03:22;;;;;;;8.25;5.13;;;;;;;;;;5067338;28;20070;-50
2021/12/07 04:05:54;;;;;;;6.35;4.75;;;;;;;;;;5066890;28;20021;-50
2021/12/07 04:08:22;;;;;;;6.50;4.57;;;;;;;;;;5066259;28;20586;-49
2021/12/07 04:10:49;;;;;;;6.90;4.70;;;;;;;;;;5066176;28;20521;-50
2021/12/07 04:13:15;;;;;;;7.78;4.85;;;;;;;;;;5067371;28;20028;-49
2021/12/07 04:15:41;;;;;;;8.32;5.57;;;;;;;;;;5066761;28;20028;-50
2021/12/07 04:18:07;;;;;;;7.72;5.22;;;;;;;;;;5066042;28;20524;-49
2021/12/07 04:20:34;;;;;;;7.32;5.07;;;;;;;;;;5066760;28;20432;-50
2021/12/07 04:23:00;;;;;;;8.68;5.32;;;;;;;;;;5067465;28;20040;-51
2021/12/07 04:25:26;;;;;;;7.80;5.38;;;;;;;;;;5068314;28;20028;-51
2021/12/07 04:27:53;;;;;;;8.43;6.03;;;;;;;;;;5069417;28;20032;-51
2021/12/07 04:30:26;;;;;;;7.43;5.18;;;;;;;;;;5065554;28;20020;-49
2021/12/07 04:32:54;;;;;;;8.60;5.50;;;;;;;;;;5065999;28;20036;-52
2021/12/07 04:35:21;;;;;;;7.72;5.40;;;;;;;;;;5067160;28;20081;-51
2021/12/07 04:37:47;;;;;;;8.40;5.65;;;;;;;;;;5066581;28;20020;-50
2021/12/07 04:40:16;;;;;;;8.73;5.82;;;;;;;;;;5066466;28;20113;-50
2021/12/07 04:42:44;;;;;;;8.95;6.00;;;;;;;;;;5066078;28;20017;-51
2021/12/07 04:45:20;;;;;;;8.88;5.78;;;;;;;;;;5066435;28;20020;-49
2021/12/07 04:58:10;;;;;;;6.78;4.70;;;;;;;;;;5066123;28;20028;-51
2021/12/07 05:00:36;;;;;;;6.30;4.43;;;;;;;;;;5048370;28;20024;-49
2021/12/07 05:03:09;;;;;;;6.93;4.85;;;;;;;;;;5066142;28;20509;-51
2021/12/07 05:05:42;;;;;;;6.57;4.70;;;;;;;;;;5065698;28;20031;-50
2021/12/07 05:08:11;;;;;;;6.22;4.18;;;;;;;;;;5065262;28;20044;-49
2021/12/07 05:11:01;;;;;;;6.78;4.78;;;;;;;;;;5066708;28;20577;-49
2021/12/07 05:13:30;;;;;;;7.43;5.43;;;;;;;;;;5067878;28;20044;-52
2021/12/07 05:24:03;;;;;;;7.30;5.13;;;;;;;;;;5065240;28;20035;-51
2021/12/07 05:37:54;;;;;;;8.00;5.50;;;;;;;;;;5065532;28;20086;-51
2021/12/07 05:40:25;;;;;;;7.85;5.50;;;;;;;;;;5066029;28;20384;-49
2021/12/07 05:42:52;;;;;;;7.53;4.85;;;;;;;;;;5066131;28;20430;-53
2021/12/07 05:45:21;;;;;;;8.88;5.60;;;;;;;;;;5063464;28;20093;-54
2021/12/07 05:47:48;;;;;;;7.05;4.75;;;;;;;;;;5062566;28;20035;-52
2021/12/07 05:50:16;;;;;;;7.07;4.88;;;;;;;;;;5065503;28;20522;-53
2021/12/07 05:52:43;;;;;;;7.53;5.18;;;;;;;;;;5065143;28;20044;-51
2021/12/07 05:55:09;;;;;;;7.75;5.43;;;;;;;;;;5065164;28;20103;-52
2021/12/07 05:57:36;;;;;;;7.40;5.10;;;;;;;;;;5064155;28;20085;-53
2021/12/07 06:00:04;;;;;;;8.48;5.75;;;;;;;;;;5065264;28;20024;-51
2021/12/07 06:02:30;;;;;;;7.50;5.38;;;;;;;;;;5064289;28;20017;-50
2021/12/07 06:04:56;;;;;;;7.80;5.18;;;;;;;;;;5064550;28;20054;-53
2021/12/07 06:07:23;;;;;;;7.93;5.78;;;;;;;;;;5065380;28;20016;-50
2021/12/07 06:09:49;;;;;;;7.68;5.47;;;;;;;;;;5065569;28;20748;-52
2021/12/07 06:12:15;;;;;;;8.82;6.03;;;;;;;;;;5066197;28;20024;-52
2021/12/07 06:14:43;;;;;;;8.38;5.50;;;;;;;;;;5064558;28;20020;-52
2021/12/07 06:17:12;;;;;;;7.15;4.95;;;;;;;;;;5064256;28;20113;-51
2021/12/07 06:19:38;;;;;;;7.72;5.43;;;;;;;;;;5064543;28;20449;-53
2021/12/07 06:22:05;;;;;;;7.63;4.90;;;;;;;;;;5064544;28;20090;-52
2021/12/07 06:24:32;;;;;;;7.05;4.72;;;;;;;;;;5066098;28;20423;-51
2021/12/07 06:26:58;;;;;;;8.48;5.53;;;;;;;;;;5066184;28;20036;-52
2021/12/07 06:29:24;;;;;;;7.70;5.20;;;;;;;;;;5048891;28;20064;-49
2021/12/07 06:31:53;;;;;;;7.80;4.72;;;;;;;;;;5064386;28;20063;-52
2021/12/07 06:34:20;;;;;;;6.70;5.05;;;;;;;;;;5064235;28;20056;-54
2021/12/07 06:36:46;;;;;;;8.07;4.78;;;;;;;;;;5065397;28;20028;-52
2021/12/07 06:39:12;;;;;;;7.07;4.22;;;;;;;;;;5065060;28;20024;-53
2021/12/07 06:41:39;;;;;;;7.60;4.72;;;;;;;;;;5065404;28;20183;-53
2021/12/07 06:44:05;;;;;;;8.55;5.05;;;;;;;;;;5064979;28;20029;-53
2021/12/07 06:46:31;;;;;;;9.32;5.88;;;;;;;;;;5065514;28;20035;-53
2021/12/07 06:48:57;;;;;;;9.82;5.88;;;;;;;;;;5066099;28;20067;-53
2021/12/07 06:51:24;;;;;;;9.07;6.00;;;;;;;;;;5066689;28;20047;-53
2021/12/07 06:53:51;;;;;;;9.40;5.78;;;;;;;;;;5064447;28;20519;-53
2021/12/07 06:56:17;;;;;;;9.65;6.15;;;;;;;;;;5064397;28;20353;-52
2021/12/07 06:58:43;;;;;;;10.32;6.13;;;;;;;;;;5064549;28;20021;-51
2021/12/07 07:01:11;;;;;;;9.80;6.40;;;;;;;;;;5060601;28;20033;-50
2021/12/07 07:03:37;;;;;;;10.75;6.63;;;;;;;;;;5062918;28;20032;-52
2021/12/07 07:06:04;;;;;;;10.10;5.95;;;;;;;;;;5065209;28;20032;-51
2021/12/07 07:08:31;;;;;;;10.05;6.70;;;;;;;;;;5062589;28;20029;-52
2021/12/07 07:10:58;;;;;;;10.48;6.32;;;;;;;;;;5065972;28;20029;-52
2021/12/07 07:13:24;;;;;;;9.82;6.28;;;;;;;;;;5065307;28;20035;-50
2021/12/07 07:15:50;;;;;;;10.18;6.63;;;;;;;;;;5064162;28;20028;-53
2021/12/07 07:18:16;;;;;;;9.02;6.15;;;;;;;;;;5047785;28;20105;-50
2021/12/07 07:20:42;;;;;;;8.45;5.68;;;;;;;;;;5065628;28;20024;-49
2021/12/07 07:23:08;;;;;;;9.38;5.90;;;;;;;;;;5062673;28;20025;-52
2021/12/07 07:25:35;;;;;;;11.48;7.07;;;;;;;;;;5062513;28;20043;-51
2021/12/07 07:28:01;;;;;;;9.43;6.38;;;;;;;;;;5073677;28;20031;-53
2021/12/07 07:30:27;;;;;;;10.07;6.50;;;;;;;;;;5085667;28;20024;-51
2021/12/07 07:32:54;;;;;;;9.45;6.50;;;;;;;;;;5071461;28;20036;-50
2021/12/07 07:35:20;;;;;;;11.57;6.60;;;;;;;;;;5065163;28;20549;-50
2021/12/07 07:37:47;;;;;;;10.43;6.07;;;;;;;;;;5065206;28;20506;-50
2021/12/07 07:40:16;;;;;;;10.23;6.47;;;;;;;;;;5065752;28;20036;-50
2021/12/07 07:42:42;;;;;;;9.50;6.32;;;;;;;;;;5065999;28;20074;-51
2021/12/07 07:45:09;;;;;;;8.68;5.32;;;;;;;;;;5050944;28;20471;-50
2021/12/07 07:47:37;;;;;;;8.18;5.80;;;;;;;;;;5068899;28;20043;-49
2021/12/07 07:50:03;;;;;;;6.70;4.45;;;;;;;;;;5069206;28;20391;-52
2021/12/07 07:52:29;;;;;;;9.80;5.97;;;;;;;;;;5068833;28;20039;-51
2021/12/07 07:54:55;;;;;;;9.02;5.60;;;;;;;;;;5067252;28;20028;-52
2021/12/07 07:57:22;;;;;;;8.85;5.63;;;;;;;;;;5067557;28;20099;-52
2021/12/07 07:59:48;;;;;;;11.68;5.85;;;;;;;;;;5066045;28;20033;-53
2021/12/07 08:02:14;;;;;;;7.85;5.63;;;;;;;;;;5067585;28;20028;-52
2021/12/07 08:04:40;;;;;;;8.00;5.60;;;;;;;;;;5067027;28;20028;-52
2021/12/07 08:07:06;;;;;;;8.88;5.90;;;;;;;;;;5066909;28;20029;-53
2021/12/07 08:09:32;;;;;;;7.78;4.88;;;;;;;;;;5066938;28;20025;-53
2021/12/07 08:11:58;;;;;;;7.13;4.93;;;;;;;;;;5067644;28;20039;-53
2021/12/07 08:14:24;;;;;;;9.40;5.45;;;;;;;;;;5067826;28;20052;-52
2021/12/07 08:16:50;;;;;;;7.90;5.60;;;;;;;;;;5067533;28;20094;-51
2021/12/07 08:19:17;;;;;;;7.53;5.57;;;;;;;;;;5067037;28;20028;-51
2021/12/07 08:21:43;;;;;;;8.48;5.53;;;;;;;;;;5066942;28;20033;-53
2021/12/07 08:24:10;;;;;;;8.32;6.07;;;;;;;;;;5067009;28;20020;-51
2021/12/07 08:26:37;;;;;;;10.88;6.55;;;;;;;;;;5066863;28;20039;-51
2021/12/07 08:29:04;;;;;;;10.18;6.53;;;;;;;;;;5066980;28;20029;-51
2021/12/07 08:31:30;;;;;;;11.32;7.43;;;;;;;;;;5066281;28;20043;-53
2021/12/07 08:33:56;;;;;;;10.43;6.47;;;;;;;;;;5066785;28;20031;-53
2021/12/07 08:36:22;;;;;;;10.07;6.32;;;;;;;;;;5067173;28;20351;-53
2021/12/07 08:38:50;;;;;;;8.45;5.63;;;;;;;;;;5066535;28;20064;-53
2021/12/07 08:41:16;;;;;;;8.68;5.65;;;;;;;;;;5066792;28;20112;-51
2021/12/07 08:43:42;;;;;;;7.93;5.60;;;;;;;;;;5066460;28;20025;-52
2021/12/07 08:46:10;;;;;;;7.90;5.15;;;;;;;;;;5066709;28;20032;-51
2021/12/07 08:48:37;;;;;;;7.85;5.20;;;;;;;;;;5066544;28;20029;-52
2021/12/07 08:51:05;;;;;;;8.45;5.32;;;;;;;;;;5066680;28;20029;-53
2021/12/07 08:53:31;;;;;;;8.27;5.32;;;;;;;;;;5065995;28;20025;-52
2021/12/07 09:01:29;;;;;;;7.50;5.07;;;;;;;;;;5066336;28;20035;-53
2021/12/07 09:03:56;;;;;;;40.30;20.17;;;;;;;;;;5065809;28;20396;-54
2021/12/07 09:06:22;;;;;;;31.50;17.30;;;;;;;;;;5066131;28;20032;-53
2021/12/07 09:08:48;;;;;;;27.60;13.90;;;;;;;;;;5066397;28;20504;-52
2021/12/07 09:11:14;;;;;;;19.63;11.27;;;;;;;;;;5066309;28;20029;-51
2021/12/07 09:13:41;;;;;;;16.00;9.70;;;;;;;;;;5065906;28;20028;-52
2021/12/07 09:16:08;;;;;;;15.95;8.73;;;;;;;;;;5065712;28;20029;-53
2021/12/07 09:18:35;;;;;;;13.73;7.75;;;;;;;;;;5065846;28;20356;-53
2021/12/07 09:21:04;;;;;;;11.00;6.88;;;;;;;;;;5065907;28;20110;-52
2021/12/07 09:23:31;;;;;;;10.30;6.35;;;;;;;;;;5065685;28;20407;-53
2021/12/07 09:25:57;;;;;;;10.27;6.60;;;;;;;;;;5066852;28;20423;-51
2021/12/07 09:28:23;;;;;;;8.40;5.65;;;;;;;;;;5064608;28;20079;-50
2021/12/07 09:30:53;;;;;;;7.82;5.85;;;;;;;;;;5079234;28;20029;-52
2021/12/07 09:33:20;;;;;;;8.57;5.30;;;;;;;;;;5062118;28;20099;-53
2021/12/07 09:35:46;;;;;;;7.63;5.25;;;;;;;;;;5052877;28;20564;-52
2021/12/07 09:38:12;;;;;;;6.85;4.80;;;;;;;;;;5064578;28;20036;-52
2021/12/07 09:40:39;;;;;;;7.78;5.30;;;;;;;;;;5066256;28;20040;-52
2021/12/07 09:43:05;;;;;;;6.18;4.28;;;;;;;;;;5066138;28;20024;-53
2021/12/07 09:45:32;;;;;;;7.47;5.00;;;;;;;;;;5065845;28;20082;-52
2021/12/07 09:48:00;;;;;;;6.88;4.38;;;;;;;;;;5066725;28;20028;-52
2021/12/07 09:50:27;;;;;;;7.07;4.70;;;;;;;;;;5066166;28;20478;-52
2021/12/07 09:52:53;;;;;;;6.15;4.05;;;;;;;;;;5067128;28;20032;-53
2021/12/07 09:55:19;;;;;;;6.85;4.05;;;;;;;;;;5066043;28;20116;-53
2021/12/07 09:57:46;;;;;;;6.40;4.30;;;;;;;;;;5066481;28;20073;-53
2021/12/07 10:00:13;;;;;;;7.13;4.22;;;;;;;;;;5065784;28;20025;-53
2021/12/07 10:02:39;;;;;;;5.30;3.85;;;;;;;;;;5066337;28;20029;-53
2021/12/07 10:05:06;;;;;;;5.43;3.63;;;;;;;;;;5066205;28;20063;-53
2021/12/07 10:07:37;;;;;;;4.35;3.28;;;;;;;;;;5065890;28;20016;-54
2021/12/07 10:10:03;;;;;;;5.25;3.40;;;;;;;;;;5065974;28;20048;-52
2021/12/07 10:12:29;;;;;;;5.70;3.90;;;;;;;;;;5065867;28;20024;-53
2021/12/07 10:14:55;;;;;;;4.90;3.63;;;;;;;;;;5066901;28;20081;-53
2021/12/07 10:17:24;;;;;;;5.75;3.72;;;;;;;;;;5066298;28;20032;-52
2021/12/07 10:19:51;;;;;;;5.95;3.53;;;;;;;;;;5066465;28;20032;-53
2021/12/07 10:22:21;;;;;;;5.53;3.90;;;;;;;;;;5066065;28;20100;-53
2021/12/07 10:24:51;;;;;;;5.57;3.55;;;;;;;;;;5066028;28;20045;-53
2021/12/07 10:27:35;;;;;;;5.72;3.72;;;;;;;;;;5047529;28;20513;-51
2021/12/07 10:30:04;;;;;;;5.82;3.55;;;;;;;;;;5065881;28;20426;-53
2021/12/07 10:32:30;;;;;;;4.80;3.85;;;;;;;;;;5066063;28;20039;-52
2021/12/07 10:34:56;;;;;;;5.93;3.28;;;;;;;;;;5065008;28;20040;-51
2021/12/07 10:37:22;;;;;;;4.85;2.88;;;;;;;;;;5065033;28;20051;-50
2021/12/07 10:39:51;;;;;;;4.72;2.92;;;;;;;;;;5065732;28;20539;-51
2021/12/07 10:42:21;;;;;;;4.25;2.88;;;;;;;;;;5065730;28;20123;-53
2021/12/07 10:44:48;;;;;;;4.30;2.92;;;;;;;;;;5065697;28;20021;-51
2021/12/07 10:47:15;;;;;;;5.28;3.55;;;;;;;;;;5064306;28;20683;-53
2021/12/07 10:49:43;;;;;;;5.15;2.95;;;;;;;;;;5058227;28;20094;-51
2021/12/07 10:52:11;;;;;;;6.15;3.80;;;;;;;;;;5049097;28;20119;-49
2021/12/07 10:54:56;;;;;;;6.22;3.60;;;;;;;;;;5067682;28;20041;-49
2021/12/07 10:57:27;;;;;;;4.95;3.50;;;;;;;;;;5065957;28;20029;-53
2021/12/07 10:59:56;;;;;;;4.40;3.13;;;;;;;;;;5065639;28;20052;-53
2021/12/07 11:02:23;;;;;;;4.45;2.83;;;;;;;;;;5066060;28;20047;-51
2021/12/07 11:04:49;;;;;;;3.83;2.90;;;;;;;;;;5065895;28;20093;-53
2021/12/07 11:07:18;;;;;;;3.00;2.20;;;;;;;;;;5072830;28;20715;-52
2021/12/07 11:10:17;;;;;;;4.65;2.50;;;;;;;;;;5073163;28;20042;-51
2021/12/07 11:12:48;;;;;;;3.38;2.20;;;;;;;;;;5084716;28;20035;-53
2021/12/07 11:15:19;;;;;;;2.83;2.00;;;;;;;;;;5085636;28;20028;-52
2021/12/07 11:17:46;;;;;;;3.25;2.00;;;;;;;;;;5086287;28;20024;-53
2021/12/07 11:20:14;;;;;;;2.42;1.52;;;;;;;;;;5085309;28;20032;-53
2021/12/07 11:22:51;;;;;;;3.15;2.00;;;;;;;;;;5069168;28;20020;-52
2021/12/07 11:31:12;;;;;;;3.60;2.00;;;;;;;;;;5050028;28;20123;-53
2021/12/07 11:33:38;;;;;;;1.77;1.45;;;;;;;;;;5067505;28;20115;-53
2021/12/07 11:36:17;;;;;;;2.13;1.65;;;;;;;;;;5068564;28;20566;-50
2021/12/07 11:38:43;;;;;;;3.83;2.58;;;;;;;;;;5066340;28;20110;-52
2021/12/07 11:41:18;;;;;;;4.28;2.65;;;;;;;;;;5087525;28;20059;-52
2021/12/07 11:43:56;;;;;;;3.58;2.72;;;;;;;;;;5088945;28;20512;-52
2021/12/07 11:46:23;;;;;;;4.00;2.65;;;;;;;;;;5089476;28;20156;-52
2021/12/07 11:48:50;;;;;;;3.83;2.83;;;;;;;;;;5070432;28;20036;-52
2021/12/07 11:51:16;;;;;;;4.25;2.65;;;;;;;;;;5087540;28;20502;-53
2021/12/07 11:53:42;;;;;;;4.38;2.95;;;;;;;;;;5068353;28;20522;-52
2021/12/07 11:56:08;;;;;;;2.72;1.98;;;;;;;;;;5068336;28;20158;-53
2021/12/07 11:58:35;;;;;;;3.95;2.50;;;;;;;;;;5068393;28;20039;-50
2021/12/07 12:01:06;;;;;;;3.22;2.05;;;;;;;;;;5068649;28;20052;-53
2021/12/07 12:03:32;;;;;;;3.20;2.33;;;;;;;;;;5068265;28;20119;-53
2021/12/07 12:05:59;;;;;;;4.07;2.70;;;;;;;;;;5068315;28;20154;-50
2021/12/07 12:08:25;;;;;;;3.13;2.35;;;;;;;;;;5068336;28;20056;-53
2021/12/07 12:10:57;;;;;;;2.58;2.00;;;;;;;;;;5069261;28;20035;-52
2021/12/07 12:13:41;;;;;;;2.72;2.28;;;;;;;;;;5068263;28;20029;-53
2021/12/07 12:16:25;;;;;;;3.90;2.33;;;;;;;;;;5068245;28;20032;-53
2021/12/07 12:19:10;;;;;;;2.38;2.00;;;;;;;;;;5068614;28;20025;-53
2021/12/07 12:21:36;;;;;;;;;;;;;;;;;;5068376;28;20056;-53
2021/12/07 12:24:19;;;;;;;3.55;2.28;;;;;;;;;;5068017;28;19948;-51
2021/12/07 12:26:46;;;;;;;3.42;2.25;;;;;;;;;;5067951;28;20028;-53
2021/12/07 12:29:17;;;;;;;2.60;1.95;;;;;;;;;;5067391;28;20511;-50
2021/12/07 12:31:49;;;;;;;3.13;2.30;;;;;;;;;;5068128;28;20024;-54
2021/12/07 12:34:22;;;;;;;2.85;2.10;;;;;;;;;;5067917;28;20036;-53
2021/12/07 12:36:55;;;;;;;2.67;1.98;;;;;;;;;;5067922;28;20508;-53
2021/12/07 12:39:22;;;;;;;3.28;1.90;;;;;;;;;;5066892;28;20100;-52
2021/12/07 12:41:59;;;;;;;2.58;1.98;;;;;;;;;;5067437;28;20489;-53
2021/12/07 12:44:27;;;;;;;3.20;1.83;;;;;;;;;;5067239;28;20100;-53
2021/12/07 12:46:58;;;;;;;2.78;1.98;;;;;;;;;;5061093;28;20031;-52
2021/12/07 12:49:36;;;;;;;2.95;1.80;;;;;;;;;;5064279;28;20100;-53
2021/12/07 12:52:03;;;;;;;2.20;1.52;;;;;;;;;;5066027;28;20040;-53
2021/12/07 12:54:37;;;;;;;2.58;1.48;;;;;;;;;;5067432;28;20043;-51
2021/12/07 12:57:10;;;;;;;1.95;1.10;;;;;;;;;;5065741;28;20032;-52
2021/12/07 12:59:38;;;;;;;2.13;0.90;;;;;;;;;;5066656;28;20575;-53
2021/12/07 13:02:04;;;;;;;1.02;0.80;;;;;;;;;;5066704;28;20027;-50
2021/12/07 13:04:31;;;;;;;1.45;1.05;;;;;;;;;;5067028;28;20063;-50
2021/12/07 13:07:06;;;;;;;2.70;1.25;;;;;;;;;;5065833;28;20029;-53
2021/12/07 13:09:34;;;;;;;2.30;1.10;;;;;;;;;;5065931;28;20028;-51
2021/12/07 13:12:00;;;;;;;1.50;0.80;;;;;;;;;;5066439;28;20029;-53
2021/12/07 13:14:26;;;;;;;2.53;1.17;;;;;;;;;;5067178;28;20520;-50
2021/12/07 13:16:52;;;;;;;1.60;1.00;;;;;;;;;;5067599;28;20029;-53
2021/12/07 13:19:18;;;;;;;2.05;1.20;;;;;;;;;;5064725;28;20108;-52
2021/12/07 13:21:45;;;;;;;3.75;1.90;;;;;;;;;;5066576;28;20093;-52
2021/12/07 13:24:14;;;;;;;4.03;1.80;;;;;;;;;;5067035;28;20024;-50
2021/12/07 13:26:41;;;;;;;3.13;1.80;;;;;;;;;;5065989;28;20028;-53
2021/12/07 13:29:15;;;;;;;2.13;1.63;;;;;;;;;;5064864;28;20036;-53
2021/12/07 13:31:43;;;;;;;2.80;1.73;;;;;;;;;;5066603;28;20028;-51
2021/12/07 13:34:10;;;;;;;3.90;2.10;;;;;;;;;;5066670;28;20035;-51
2021/12/07 13:36:41;;;;;;;3.08;2.03;;;;;;;;;;5065631;28;20028;-51
2021/12/07 13:39:10;;;;;;;4.63;2.03;;;;;;;;;;5063552;28;20188;-52
2021/12/07 13:41:55;;;;;;;3.35;1.70;;;;;;;;;;5063940;28;20024;-51
2021/12/07 13:44:21;;;;;;;3.15;1.60;;;;;;;;;;5066993;28;20030;-51
2021/12/07 13:46:51;;;;;;;4.93;2.08;;;;;;;;;;5066333;28;20040;-52
2021/12/07 13:49:18;;;;;;;4.72;2.13;;;;;;;;;;5064886;28;20356;-53
2021/12/07 13:51:45;;;;;;;4.65;2.53;;;;;;;;;;5065525;28;20081;-52
2021/12/07 13:54:15;;;;;;;4.68;1.98;;;;;;;;;;5066298;28;20029;-53
2021/12/07 13:56:41;;;;;;;3.78;2.03;;;;;;;;;;5065407;28;20025;-52
2021/12/07 13:59:11;;;;;;;3.28;1.88;;;;;;;;;;5065379;28;20568;-52
2021/12/07 14:01:38;;;;;;;3.70;2.08;;;;;;;;;;5064773;28;20366;-52
2021/12/07 14:04:05;;;;;;;5.05;2.25;;;;;;;;;;5066167;28;20484;-51
2021/12/07 14:06:32;;;;;;;4.25;2.70;;;;;;;;;;5047054;28;20028;-50
2021/12/07 14:09:05;;;;;;;4.20;2.83;;;;;;;;;;5065267;28;20123;-49
2021/12/07 14:11:31;;;;;;;6.72;3.03;;;;;;;;;;5064250;28;20483;-51
2021/12/07 14:13:57;;;;;;;5.72;3.13;;;;;;;;;;5066320;28;20125;-53
2021/12/07 14:16:25;;;;;;;6.00;2.80;;;;;;;;;;5065661;28;20427;-53
2021/12/07 14:18:52;;;;;;;4.05;2.13;;;;;;;;;;5047728;28;20077;-52
2021/12/07 14:21:18;;;;;;;4.18;2.50;;;;;;;;;;5063084;28;20484;-53
2021/12/07 14:23:45;;;;;;;3.63;2.50;;;;;;;;;;5065137;28;20491;-53
2021/12/07 14:26:22;;;;;;;6.95;3.95;;;;;;;;;;5062888;28;20083;-52
2021/12/07 14:28:53;;;;;;;5.55;3.10;;;;;;;;;;5064948;28;20032;-51
2021/12/07 14:31:23;;;;;;;5.35;3.15;;;;;;;;;;5069273;28;20024;-53
2021/12/07 14:33:55;;;;;;;4.93;2.97;;;;;;;;;;5065882;28;20418;-52
2021/12/07 14:36:26;;;;;;;3.83;2.50;;;;;;;;;;5065290;28;20028;-52
2021/12/07 14:38:53;;;;;;;4.13;2.60;;;;;;;;;;5064735;28;20037;-53
2021/12/07 14:41:21;;;;;;;5.10;2.47;;;;;;;;;;5062229;28;20426;-52
2021/12/07 14:43:48;;;;;;;4.75;2.90;;;;;;;;;;5061365;28;20089;-53
2021/12/07 14:46:16;;;;;;;5.20;3.13;;;;;;;;;;5063594;28;20029;-51
2021/12/07 14:48:43;;;;;;;6.32;3.40;;;;;;;;;;5085914;28;20062;-52
2021/12/07 14:51:15;;;;;;;3.90;2.85;;;;;;;;;;5074083;28;20024;-53
2021/12/07 14:53:42;;;;;;;4.50;2.78;;;;;;;;;;5063461;28;20032;-49
2021/12/07 14:56:12;;;;;;;4.93;3.05;;;;;;;;;;5064964;28;20383;-53
2021/12/07 14:58:39;;;;;;;6.45;3.45;;;;;;;;;;5062501;28;20038;-53
2021/12/07 15:01:07;;;;;;;5.15;3.38;;;;;;;;;;5068228;28;20021;-54
2021/12/07 15:03:53;;;;;;;4.60;3.20;;;;;;;;;;5051663;28;20487;-53
2021/12/07 15:06:20;;;;;;;5.43;3.10;;;;;;;;;;5064067;28;20036;-53
2021/12/07 15:08:47;;;;;;;5.45;3.08;;;;;;;;;;5065324;28;20067;-53
2021/12/07 15:11:13;;;;;;;4.65;3.05;;;;;;;;;;5065667;28;20033;-53
2021/12/07 15:13:40;;;;;;;4.65;2.90;;;;;;;;;;5064624;28;20093;-53
2021/12/07 15:16:08;;;;;;;4.55;2.83;;;;;;;;;;5066242;28;20024;-52
2021/12/07 15:18:39;;;;;;;3.42;2.38;;;;;;;;;;5065671;28;20052;-50
2021/12/07 15:21:22;;;;;;;3.72;2.50;;;;;;;;;;5067373;28;20135;-48
2021/12/07 15:23:56;;;;;;;3.97;2.47;;;;;;;;;;5062703;28;20135;-51
2021/12/07 15:26:23;;;;;;;4.93;3.03;;;;;;;;;;5066214;28;20035;-51
2021/12/07 15:28:52;;;;;;;4.15;2.70;;;;;;;;;;5065825;28;20040;-47
2021/12/07 15:31:22;;;;;;;4.00;2.38;;;;;;;;;;5064059;28;20146;-51
2021/12/07 15:33:49;;;;;;;3.55;2.30;;;;;;;;;;5062513;28;20035;-52
2021/12/07 15:36:18;;;;;;;2.63;2.08;;;;;;;;;;5066191;28;20090;-52
2021/12/07 15:38:44;;;;;;;2.33;1.75;;;;;;;;;;5065874;28;20102;-51
2021/12/07 15:41:11;;;;;;;2.83;1.92;;;;;;;;;;5065765;28;20021;-50
2021/12/07 15:43:41;;;;;;;2.75;2.30;;;;;;;;;;5058523;28;20033;-51
2021/12/07 15:46:08;;;;;;;3.60;2.22;;;;;;;;;;5062132;28;20884;-49
2021/12/07 15:48:35;;;;;;;2.78;1.92;;;;;;;;;;5065428;28;20504;-48
2021/12/07 15:51:02;;;;;;;4.28;2.30;;;;;;;;;;5066272;28;20032;-51
2021/12/07 15:53:28;;;;;;;3.53;2.20;;;;;;;;;;5061269;28;20392;-49
2021/12/07 15:55:55;;;;;;;4.05;1.95;;;;;;;;;;5058254;28;20024;-53
2021/12/07 15:58:24;;;;;;;2.30;1.90;;;;;;;;;;5064077;28;20044;-50
2021/12/07 16:00:57;;;;;;;2.33;1.55;;;;;;;;;;5065137;28;20036;-52
2021/12/07 16:03:30;;;;;;;2.50;1.70;;;;;;;;;;5065230;28;20036;-53
2021/12/07 16:05:59;;;;;;;4.75;2.72;;;;;;;;;;5068163;28;20407;-53
2021/12/07 16:08:30;;;;;;;5.20;2.85;;;;;;;;;;5067869;28;20115;-53
2021/12/07 16:10:57;;;;;;;6.50;3.15;;;;;;;;;;5063124;28;20049;-53
2021/12/07 16:13:27;;;;;;;6.72;3.28;;;;;;;;;;5066900;28;20032;-53
2021/12/07 16:15:58;;;;;;;6.40;3.60;;;;;;;;;;5060407;28;20032;-49
2021/12/07 16:18:25;;;;;;;6.15;3.42;;;;;;;;;;5068091;28;20502;-54
2021/12/07 16:20:53;;;;;;;7.78;3.90;;;;;;;;;;5067348;28;20020;-50
2021/12/07 16:23:20;;;;;;;6.03;3.65;;;;;;;;;;5067486;28;20037;-52
2021/12/07 16:25:47;;;;;;;7.00;3.90;;;;;;;;;;5068048;28;20063;-52
2021/12/07 16:28:15;;;;;;;6.38;3.38;;;;;;;;;;5066547;28;20655;-52
2021/12/07 16:30:41;;;;;;;6.57;4.03;;;;;;;;;;5049055;28;20056;-51
2021/12/07 16:33:07;;;;;;;6.90;3.63;;;;;;;;;;5063915;28;20024;-53
2021/12/07 16:35:35;;;;;;;7.65;3.90;;;;;;;;;;5075454;28;20063;-51